createdAt,value
2022-12-04T00:00:48.978Z,13.20
2022-12-04T00:03:34.920Z,15.25
2022-12-04T00:06:23.157Z,14.40
2022-12-04T00:09:08.800Z,15.48
2022-12-04T00:11:54.507Z,14.00
2022-12-04T00:15:00.796Z,15.30
2022-12-04T00:17:49.080Z,15.13
2022-12-04T00:20:35.089Z,14.52
2022-12-04T00:23:37.780Z,15.48
2022-12-04T00:26:25.860Z,14.85
2022-12-04T00:29:11.284Z,15.23
2022-12-04T00:31:56.764Z,13.48
2022-12-04T00:34:42.388Z,13.95
2022-12-04T00:37:28.308Z,14.32
2022-12-04T00:40:13.807Z,14.80
2022-12-04T00:42:59.444Z,15.13
2022-12-04T00:45:45.008Z,15.10
2022-12-04T00:48:30.119Z,13.60
2022-12-04T00:51:20.321Z,15.57
2022-12-04T00:54:06.303Z,14.35
2022-12-04T00:56:51.922Z,15.50
2022-12-04T00:59:38.330Z,15.60
2022-12-04T01:02:23.786Z,14.43
2022-12-04T01:05:09.150Z,15.30
2022-12-04T01:07:55.183Z,13.90
2022-12-04T01:10:42.279Z,15.43
2022-12-04T01:13:27.477Z,15.70
2022-12-04T01:16:19.333Z,14.00
2022-12-04T01:19:10.095Z,14.80
2022-12-04T01:21:55.711Z,14.43
2022-12-04T01:24:41.083Z,13.48
2022-12-04T01:27:26.765Z,15.80
2022-12-04T01:30:12.611Z,15.27
2022-12-04T01:32:58.319Z,15.00
2022-12-04T01:35:53.147Z,14.07
2022-12-04T01:38:39.606Z,15.20
2022-12-04T01:41:27.651Z,14.93
2022-12-04T01:44:22.836Z,15.23
2022-12-04T01:47:10.588Z,14.60
2022-12-04T01:49:57.040Z,16.17
2022-12-04T01:52:42.930Z,14.50
2022-12-04T01:55:29.253Z,15.77
2022-12-04T01:58:17.569Z,15.38
2022-12-04T02:01:08.754Z,15.75
2022-12-04T02:03:54.892Z,17.25
2022-12-04T02:06:40.506Z,13.93
2022-12-04T02:09:27.265Z,15.05
2022-12-04T02:12:33.014Z,16.55
2022-12-04T02:16:01.456Z,15.63
2022-12-04T02:19:25.128Z,17.35
2022-12-04T02:22:49.395Z,15.83
2022-12-04T02:25:44.210Z,16.90
2022-12-04T02:28:54.277Z,16.45
2022-12-04T02:31:59.664Z,16.30
2022-12-04T02:34:56.759Z,16.45
2022-12-04T02:37:47.785Z,15.98
2022-12-04T02:41:04.428Z,15.90
2022-12-04T02:43:58.072Z,16.33
2022-12-04T02:50:13.481Z,17.52
2022-12-04T02:53:10.419Z,17.65
2022-12-04T02:56:00.292Z,15.70
2022-12-04T02:58:57.547Z,15.55
2022-12-04T03:01:49.629Z,17.45
2022-12-04T03:04:37.901Z,16.85
2022-12-04T03:07:52.586Z,17.40
2022-12-04T03:10:47.099Z,18.67
2022-12-04T03:13:49.542Z,18.00
2022-12-04T03:16:40.358Z,16.90
2022-12-04T03:19:34.318Z,18.55
2022-12-04T03:22:22.159Z,18.05
2022-12-04T03:30:07.271Z,19.30
2022-12-04T03:33:15.319Z,18.38
2022-12-04T03:36:18.061Z,18.20
2022-12-04T03:39:24.987Z,19.50
2022-12-04T03:42:23.230Z,19.23
2022-12-04T03:45:24.674Z,19.42
2022-12-04T03:48:26.288Z,19.40
2022-12-04T03:51:22.963Z,20.67
2022-12-04T03:54:24.007Z,19.33
2022-12-04T03:57:15.614Z,20.65
2022-12-04T04:00:07.027Z,20.40
2022-12-04T04:02:59.221Z,22.33
2022-12-04T04:05:52.449Z,19.38
2022-12-04T04:08:41.575Z,19.83
2022-12-04T04:12:02.978Z,19.33
2022-12-04T04:15:32.186Z,20.38
2022-12-04T04:18:37.007Z,20.27
2022-12-04T04:21:47.272Z,21.92
2022-12-04T04:24:54.585Z,20.88
2022-12-04T04:27:40.227Z,18.92
2022-12-04T04:30:27.418Z,21.65
2022-12-04T04:33:16.907Z,20.80
2022-12-04T04:36:24.262Z,20.20
2022-12-04T04:39:12.798Z,22.05
2022-12-04T04:42:14.469Z,23.08
2022-12-04T04:45:13.723Z,23.35
2022-12-04T04:48:06.339Z,21.38
2022-12-04T04:50:53.408Z,23.77
2022-12-04T04:53:43.381Z,21.73
2022-12-04T04:56:29.310Z,21.38
2022-12-04T04:59:14.902Z,23.40
2022-12-04T05:02:00.527Z,21.25
2022-12-04T05:04:46.217Z,22.65
2022-12-04T05:07:31.775Z,23.67
2022-12-04T05:10:17.133Z,24.33
2022-12-04T05:13:02.617Z,22.48
2022-12-04T05:16:03.711Z,22.35
2022-12-04T05:19:08.283Z,23.17
2022-12-04T05:21:53.657Z,25.90
2022-12-04T05:24:39.298Z,24.75
2022-12-04T05:27:26.227Z,23.85
2022-12-04T05:30:12.337Z,23.00
2022-12-04T05:32:57.471Z,23.50
2022-12-04T05:35:42.877Z,22.63
2022-12-04T05:38:28.848Z,24.27
2022-12-04T05:41:14.305Z,22.30
2022-12-04T05:43:59.846Z,25.08
2022-12-04T05:46:45.380Z,23.58
2022-12-04T05:49:32.090Z,22.67
2022-12-04T05:52:17.701Z,22.83
2022-12-04T05:55:03.357Z,22.58
2022-12-04T05:57:48.980Z,22.83
2022-12-04T06:00:34.661Z,22.67
2022-12-04T06:03:20.335Z,24.55
2022-12-04T06:06:21.144Z,23.55
2022-12-04T06:09:09.675Z,23.80
2022-12-04T06:11:58.281Z,24.77
2022-12-04T06:14:43.853Z,24.30
2022-12-04T06:17:29.430Z,25.45
2022-12-04T06:20:14.944Z,26.13
2022-12-04T06:23:00.699Z,25.23
2022-12-04T06:25:46.025Z,23.10
2022-12-04T06:28:31.976Z,23.00
2022-12-04T06:31:19.096Z,22.98
2022-12-04T06:34:05.464Z,26.48
2022-12-04T06:36:50.746Z,23.42
2022-12-04T06:39:36.252Z,21.48
2022-12-04T06:42:21.523Z,23.35
2022-12-04T06:45:07.649Z,23.30
2022-12-04T06:47:52.791Z,23.00
2022-12-04T06:50:38.542Z,22.55
2022-12-04T06:53:24.030Z,22.15
2022-12-04T06:56:12.926Z,22.73
2022-12-04T06:59:00.116Z,23.77
2022-12-04T07:01:45.277Z,20.58
2022-12-04T07:04:30.818Z,21.88
2022-12-04T07:07:16.332Z,22.45
2022-12-04T07:10:02.536Z,21.13
2022-12-04T07:12:47.906Z,22.00
2022-12-04T07:15:34.864Z,21.27
2022-12-04T07:18:19.875Z,21.75
2022-12-04T07:21:10.838Z,22.10
2022-12-04T07:23:59.087Z,18.95
2022-12-04T07:26:45.392Z,18.98
2022-12-04T07:29:31.041Z,20.02
2022-12-04T07:32:16.363Z,19.20
2022-12-04T07:35:02.113Z,18.23
2022-12-04T07:37:47.430Z,19.45
2022-12-04T07:40:32.787Z,18.55
2022-12-04T07:43:18.249Z,18.80
2022-12-04T07:46:10.738Z,18.58
2022-12-04T07:48:58.137Z,19.65
2022-12-04T07:51:43.896Z,18.58
2022-12-04T07:54:29.341Z,18.20
2022-12-04T07:57:15.624Z,18.50
2022-12-04T08:00:01.309Z,17.95
2022-12-04T08:02:46.788Z,18.77
2022-12-04T08:05:32.850Z,17.23
2022-12-04T08:08:18.659Z,18.52
2022-12-04T08:11:12.635Z,19.17
2022-12-04T08:14:00.287Z,18.00
2022-12-04T08:16:51.042Z,16.75
2022-12-04T08:19:37.970Z,18.60
2022-12-04T08:22:25.426Z,16.98
2022-12-04T08:25:11.035Z,16.95
2022-12-04T08:27:56.469Z,17.23
2022-12-04T08:30:41.974Z,17.02
2022-12-04T08:33:28.154Z,17.40
2022-12-04T08:36:15.712Z,17.80
2022-12-04T08:39:01.544Z,16.35
2022-12-04T08:41:47.678Z,15.82
2022-12-04T08:44:34.241Z,13.23
2022-12-04T08:47:19.787Z,16.05
2022-12-04T08:50:06.297Z,14.00
2022-12-04T08:52:51.649Z,14.48
2022-12-04T08:55:37.309Z,14.82
2022-12-04T08:58:22.950Z,14.00
2022-12-04T09:01:10.730Z,14.52
2022-12-04T09:03:57.695Z,14.57
2022-12-04T09:06:43.242Z,15.32
2022-12-04T09:09:28.796Z,14.07
2022-12-04T09:12:14.258Z,15.52
2022-12-04T09:14:59.622Z,13.80
2022-12-04T09:17:45.148Z,13.52
2022-12-04T09:20:30.742Z,13.45
2022-12-04T09:23:16.065Z,13.48
2022-12-04T09:26:02.190Z,14.05
2022-12-04T09:28:48.992Z,14.10
2022-12-04T09:31:34.753Z,13.93
2022-12-04T09:34:20.282Z,13.70
2022-12-04T09:37:05.844Z,14.55
2022-12-04T09:39:51.395Z,14.95
2022-12-04T09:42:36.790Z,14.35
2022-12-04T09:45:25.340Z,14.60
2022-12-04T09:48:12.337Z,15.48
2022-12-04T09:50:58.645Z,14.88
2022-12-04T09:53:56.212Z,14.55
2022-12-04T09:57:03.775Z,14.10
2022-12-04T09:59:51.037Z,15.88
2022-12-04T10:02:39.462Z,14.50
2022-12-04T10:05:49.863Z,15.75
2022-12-04T10:08:45.003Z,15.68
2022-12-04T10:11:56.604Z,14.98
2022-12-04T10:14:48.414Z,15.88
2022-12-04T10:18:01.666Z,17.23
2022-12-04T10:21:12.785Z,15.85
2022-12-04T10:24:17.421Z,15.00
2022-12-04T10:27:10.834Z,17.08
2022-12-04T10:32:47.265Z,16.92
2022-12-04T10:35:35.238Z,16.58
2022-12-04T10:38:34.221Z,16.27
2022-12-04T10:41:38.137Z,17.02
2022-12-04T10:47:12.440Z,16.05
2022-12-04T10:50:12.972Z,17.52
2022-12-04T10:52:59.052Z,16.08
2022-12-04T10:55:44.769Z,16.42
2022-12-04T10:58:30.512Z,15.52
2022-12-04T11:01:16.406Z,17.00
2022-12-04T11:04:05.866Z,14.95
2022-12-04T11:07:01.702Z,13.65
2022-12-04T11:10:17.994Z,13.93
2022-12-04T11:13:17.400Z,12.15
2022-12-04T11:16:04.022Z,12.60
2022-12-04T11:18:50.946Z,11.48
2022-12-04T11:21:38.461Z,12.15
2022-12-04T11:24:30.384Z,12.27
2022-12-04T11:27:35.002Z,12.48
2022-12-04T11:30:29.934Z,12.20
2022-12-04T11:33:35.319Z,13.48
2022-12-04T11:36:32.616Z,12.15
2022-12-04T11:39:25.932Z,11.85
2022-12-04T11:42:14.020Z,10.75
2022-12-04T11:45:23.366Z,11.77
2022-12-04T11:48:19.401Z,13.13
2022-12-04T11:51:37.334Z,13.40
2022-12-04T11:54:56.137Z,13.50
2022-12-04T11:58:04.605Z,13.02
2022-12-04T12:01:12.277Z,12.68
2022-12-04T12:04:25.960Z,13.02
2022-12-04T12:07:21.708Z,12.85
2022-12-04T12:10:25.373Z,12.90
2022-12-04T12:13:29.346Z,13.85
2022-12-04T12:20:06.960Z,11.73
2022-12-04T12:23:06.506Z,11.67
2022-12-04T12:26:10.212Z,11.75
2022-12-04T12:29:10.273Z,12.48
2022-12-04T12:32:16.485Z,12.60
2022-12-04T12:35:02.923Z,12.60
2022-12-04T12:37:53.203Z,12.30
2022-12-04T12:41:06.696Z,12.90
2022-12-04T12:44:04.411Z,12.13
2022-12-04T12:47:00.740Z,12.75
2022-12-04T12:50:11.944Z,12.75
2022-12-04T12:53:05.553Z,12.70
2022-12-04T12:55:55.189Z,13.52
2022-12-04T12:58:46.486Z,12.75
2022-12-04T13:01:43.847Z,12.70
2022-12-04T13:04:42.186Z,12.73
2022-12-04T13:07:42.836Z,12.85
2022-12-04T13:10:43.435Z,13.07
2022-12-04T13:13:34.823Z,12.02
2022-12-04T13:16:27.452Z,13.80
2022-12-04T13:19:34.183Z,13.45
2022-12-04T13:22:27.133Z,14.52
2022-12-04T13:25:27.931Z,15.27
2022-12-04T13:28:24.009Z,14.95
2022-12-04T13:31:25.081Z,14.73
2022-12-04T13:34:45.315Z,13.82
2022-12-04T13:37:38.358Z,14.07
2022-12-04T13:40:40.954Z,15.45
2022-12-04T13:43:41.817Z,14.25
2022-12-04T13:46:40.051Z,15.90
2022-12-04T13:49:28.928Z,14.93
2022-12-04T13:52:24.335Z,14.27
2022-12-04T13:55:33.348Z,12.93
2022-12-04T13:58:18.512Z,12.65
2022-12-04T14:01:22.874Z,14.20
2022-12-04T14:04:22.448Z,13.02
2022-12-04T14:07:20.743Z,13.82
2022-12-04T14:10:15.232Z,14.40
2022-12-04T14:13:18.000Z,14.32
2022-12-04T14:16:15.890Z,13.00
2022-12-04T14:19:04.172Z,12.77
2022-12-04T14:21:49.438Z,12.90
2022-12-04T14:24:39.893Z,11.77
2022-12-04T14:27:47.174Z,12.20
2022-12-04T14:30:39.300Z,13.25
2022-12-04T14:33:28.276Z,12.37
2022-12-04T14:36:25.170Z,14.48
2022-12-04T14:39:31.647Z,12.65
2022-12-04T14:42:27.735Z,12.57
2022-12-04T14:45:45.245Z,13.00
2022-12-04T14:48:58.602Z,13.20
2022-12-04T14:52:08.736Z,13.57
2022-12-04T14:55:37.020Z,13.25
2022-12-04T14:58:34.391Z,12.60
2022-12-04T15:01:29.779Z,10.88
2022-12-04T15:04:32.537Z,11.52
2022-12-04T15:07:24.587Z,12.10
2022-12-04T15:10:41.828Z,12.60
2022-12-04T15:13:27.817Z,12.25
2022-12-04T15:16:22.614Z,11.50
2022-12-04T15:19:18.853Z,13.23
2022-12-04T15:22:10.185Z,10.07
2022-12-04T15:24:57.653Z,11.40
2022-12-04T15:27:43.874Z,11.07
2022-12-04T15:30:30.720Z,11.10
2022-12-04T15:33:21.669Z,8.93
2022-12-04T15:36:18.057Z,9.70
2022-12-04T15:39:05.281Z,12.00
2022-12-04T15:41:50.694Z,10.43
2022-12-04T15:44:36.604Z,10.35
2022-12-04T15:47:24.992Z,10.88
2022-12-04T15:50:13.576Z,11.52
2022-12-04T15:53:26.779Z,10.55
2022-12-04T15:56:21.278Z,9.23
2022-12-04T15:59:15.050Z,12.20
2022-12-04T16:02:19.978Z,11.63
2022-12-04T16:05:13.182Z,11.43
2022-12-04T16:08:19.716Z,10.50
2022-12-04T16:11:08.282Z,10.88
2022-12-04T16:14:13.981Z,11.02
2022-12-04T16:17:06.283Z,10.70
2022-12-04T16:19:52.221Z,11.97
2022-12-04T16:22:40.616Z,11.55
2022-12-04T16:25:26.116Z,12.23
2022-12-04T16:28:11.832Z,12.15
2022-12-04T16:30:57.325Z,12.35
2022-12-04T16:33:42.697Z,14.18
2022-12-04T16:36:28.234Z,11.85
2022-12-04T16:39:13.588Z,13.80
2022-12-04T16:41:59.388Z,13.60
2022-12-04T16:44:50.386Z,13.57
2022-12-04T16:47:39.536Z,13.88
2022-12-04T16:50:28.516Z,14.55
2022-12-04T16:53:18.669Z,14.20
2022-12-04T16:56:04.615Z,13.32
2022-12-04T16:58:50.078Z,13.00
2022-12-04T17:01:39.275Z,13.48
2022-12-04T17:04:25.018Z,13.75
2022-12-04T17:07:10.401Z,13.00
2022-12-04T17:09:56.013Z,13.20
2022-12-04T17:12:42.445Z,11.77
2022-12-04T17:15:28.788Z,12.75
2022-12-04T17:18:20.734Z,12.50
2022-12-04T17:21:08.441Z,12.05
2022-12-04T17:23:53.966Z,11.73
2022-12-04T17:26:39.434Z,11.93
2022-12-04T17:29:24.944Z,13.68
2022-12-04T17:32:10.504Z,12.15
2022-12-04T17:34:56.034Z,12.95
2022-12-04T17:37:41.929Z,14.52
2022-12-04T17:40:27.475Z,14.35
2022-12-04T17:43:17.499Z,12.55
2022-12-04T17:46:13.152Z,14.23
2022-12-04T17:49:02.647Z,13.63
2022-12-04T17:51:51.147Z,13.15
2022-12-04T17:54:36.980Z,12.95
2022-12-04T17:57:22.516Z,12.95
2022-12-04T18:00:08.512Z,13.40
2022-12-04T18:02:53.753Z,13.00
2022-12-04T18:05:39.221Z,14.70
2022-12-04T18:08:28.855Z,14.25
2022-12-04T18:11:14.792Z,14.95
2022-12-04T18:14:12.217Z,15.93
2022-12-04T18:16:58.971Z,13.23
2022-12-04T18:19:44.569Z,15.82
2022-12-04T18:22:30.232Z,14.18
2022-12-04T18:25:15.745Z,14.52
2022-12-04T18:28:01.480Z,14.07
2022-12-04T18:30:47.025Z,13.90
2022-12-04T18:33:34.580Z,13.93
2022-12-04T18:36:23.536Z,14.95
2022-12-04T18:39:13.943Z,14.40
2022-12-04T18:41:59.383Z,15.30
2022-12-04T18:44:45.274Z,13.90
2022-12-04T18:47:31.001Z,14.30
2022-12-04T18:50:17.369Z,14.05
2022-12-04T18:53:03.008Z,14.35
2022-12-04T18:55:48.438Z,13.40
2022-12-04T18:58:33.744Z,16.98
2022-12-04T19:01:19.961Z,16.42
2022-12-04T19:04:08.102Z,16.30
2022-12-04T19:06:55.906Z,15.68
2022-12-04T19:10:11.307Z,13.48
2022-12-04T19:12:48.020Z,15.15
2022-12-04T19:15:34.086Z,14.88
2022-12-04T19:18:19.579Z,15.55
2022-12-04T19:21:06.368Z,13.95
2022-12-04T19:23:56.652Z,15.85
2022-12-04T19:26:42.941Z,16.52
2022-12-04T19:29:28.799Z,13.50
2022-12-04T19:32:14.408Z,13.93
2022-12-04T19:34:59.736Z,15.35
2022-12-04T19:37:51.134Z,14.05
2022-12-04T19:40:37.977Z,12.95
2022-12-04T19:43:23.439Z,13.50
2022-12-04T19:46:11.017Z,13.55
2022-12-04T19:49:01.545Z,13.88
2022-12-04T19:51:48.504Z,14.15
2022-12-04T19:54:33.780Z,13.52
2022-12-04T19:57:20.581Z,13.00
2022-12-04T20:00:06.909Z,12.05
2022-12-04T20:02:52.551Z,12.77
2022-12-04T20:05:38.149Z,14.70
2022-12-04T20:08:23.649Z,12.65
2022-12-04T20:11:15.770Z,14.45
2022-12-04T20:14:02.829Z,13.65
2022-12-04T20:16:48.646Z,13.75
2022-12-04T20:19:34.123Z,12.40
2022-12-04T20:22:19.646Z,12.10
2022-12-04T20:25:05.631Z,12.20
2022-12-04T20:27:50.931Z,12.88
2022-12-04T20:30:36.640Z,12.60
2022-12-04T20:33:22.057Z,13.38
2022-12-04T20:36:17.157Z,14.75
2022-12-04T20:39:02.962Z,13.13
2022-12-04T20:41:48.476Z,13.88
2022-12-04T20:44:33.843Z,14.25
2022-12-04T20:47:19.608Z,14.65
2022-12-04T20:50:07.161Z,14.48
2022-12-04T20:52:52.408Z,14.15
2022-12-04T20:55:38.091Z,15.60
2022-12-04T20:58:23.887Z,13.93
2022-12-04T21:01:11.442Z,14.05
2022-12-04T21:03:59.084Z,14.60
2022-12-04T21:06:46.573Z,14.23
2022-12-04T21:09:32.146Z,14.30
2022-12-04T21:12:41.470Z,15.85
2022-12-04T21:15:46.990Z,16.65
2022-12-04T21:18:32.526Z,17.70
2022-12-04T21:21:18.036Z,16.40
2022-12-04T21:24:05.759Z,15.23
2022-12-04T21:26:51.063Z,15.82
2022-12-04T21:29:39.658Z,16.33
2022-12-04T21:32:25.927Z,15.82
2022-12-04T21:35:11.227Z,15.88
2022-12-04T21:37:56.821Z,16.10
2022-12-04T21:40:42.851Z,15.68
2022-12-04T21:43:30.123Z,18.20
2022-12-04T21:46:15.539Z,16.15
2022-12-04T21:49:01.492Z,15.95
2022-12-04T21:52:02.599Z,16.55
2022-12-04T21:54:52.156Z,17.70
2022-12-04T21:57:37.514Z,16.85
2022-12-04T22:00:23.656Z,15.63
2022-12-04T22:03:09.123Z,15.48
2022-12-04T22:06:00.279Z,16.50
2022-12-04T22:08:46.026Z,15.60
2022-12-04T22:11:31.260Z,16.25
2022-12-04T22:14:16.854Z,16.23
2022-12-04T22:17:02.814Z,17.00
2022-12-04T22:19:48.685Z,16.48
2022-12-04T22:22:35.571Z,17.38
2022-12-04T22:25:20.810Z,16.60
2022-12-04T22:28:06.210Z,15.13
2022-12-04T22:30:51.850Z,16.52
2022-12-04T22:33:38.258Z,16.77
2022-12-04T22:36:30.393Z,17.05
2022-12-04T22:39:16.000Z,17.05
2022-12-04T22:42:01.593Z,17.33
2022-12-04T22:44:47.120Z,17.65
2022-12-04T22:47:32.761Z,15.05
2022-12-04T22:50:18.381Z,17.80
2022-12-04T22:53:04.041Z,15.77
2022-12-04T22:55:49.757Z,17.67
2022-12-04T22:58:36.400Z,17.20
2022-12-04T23:01:27.673Z,18.38
2022-12-04T23:04:12.967Z,16.42
2022-12-04T23:06:58.626Z,17.58
2022-12-04T23:09:44.256Z,18.85
2022-12-04T23:12:29.790Z,18.90
2022-12-04T23:15:15.038Z,18.40
2022-12-04T23:18:00.521Z,18.13
2022-12-04T23:20:45.951Z,19.05
2022-12-04T23:23:32.994Z,21.20
2022-12-04T23:26:22.527Z,19.52
2022-12-04T23:29:29.662Z,19.02
2022-12-04T23:32:13.941Z,18.45
2022-12-04T23:34:59.871Z,18.88
2022-12-04T23:37:45.375Z,21.60
2022-12-04T23:40:30.756Z,19.83
2022-12-04T23:43:17.178Z,19.13
2022-12-04T23:46:07.432Z,19.10
2022-12-04T23:48:56.684Z,19.45
2022-12-04T23:51:41.843Z,18.80
2022-12-04T23:54:28.475Z,20.27
2022-12-04T23:57:13.865Z,21.42
2022-12-04T23:59:59.754Z,20.60
